To NAV CANADA Home Page Login to a new session Search on AWWS site Feedback and Comments Disclaimer Vers la page française équivalente Tips FAQ What's new on the site To the Forecasts and Observations / NOTAM section To "File a Flight Plan" website Publications and other links Update of the User's profile FIC Telephone Numbers My Weather Data Folder Route Weather Data Regional Weather Data Local Weather Data To the Forecasts and Observations / NOTAM section
Request Generated 04/24/2014 at 08:30:35 UTC . Weather information available at that time is displayed.

METAR/TAF

RANKIN INLET/NU    

METAR CYRT 240800Z 33010KT 15SM SKC M20/M22 A3043 RMK SLP310=
METAR CYRT 240700Z 34014KT 15SM SKC M19/M22 A3043 RMK SLP309=
METAR CYRT 240600Z 33014KT 15SM SKC M19/M21 A3043 RMK SLP310=

TAF CYRT 240538Z 2406/2418 34010KT P6SM SKC
RMK NXT FCST BY 241200Z=
Your time UTC time
Weather data provided by Environment Canada and NAV CANADA